Cloverdale, Indiana
Current Conditions -  °F | °C
As of 1:35 PM on Thursday 30 Oct 2014 (Local Time) from K4I7 Reporting Station
Clear Clear  
Wind Chill: 50°   Ceiling: Unl
Heat Index: 50°   Visibility: 10mi
Dew Point: 34°   Wind: 3mph
Humidity: 54%   Direction: 170°S
Pressure: 30.13"   Gusts: NA
Location:  39.51°N, 86.79°W
Report Text: K4I7 301735Z AUTO 17003KT 10SM CLR 10/01 A3013 RMK AO2
Loading
Personal Weather Stations






























Interactive Weather Map
Tropical Storm Tracking
New forecast layout! Learn more

10-Day Weather Forecast

Advertisements
Track Severe Weather on mobile